Time;durP1;ratioP1;P1;durP2;ratioP2;P2;SDS_P1;SDS_P2;PMS_P1;PMS_P2;Temp;Humidity;BMP_temperature;BMP_pressure;BME280_temperature;BME280_humidity;BME280_pressure;Samples;Min_cycle;Max_cycle;Signal;HPM_P1;HPM_P2
2022/05/06 00:01:45;;;;;;;;;;;;;;;;;;5010598;28;1273;-81
2022/05/06 00:04:11;;;;;;;;;;;;;;;;;;5048121;28;1149;-82
2022/05/06 00:06:36;;;;;;;;;;;;;;;;;;5033644;28;1189;-81
2022/05/06 00:09:03;;;;;;;;;;;;;;;;;;5030608;28;1212;-80
2022/05/06 00:11:28;;;;;;;;;;;;;;;;;;5027610;28;1392;-81
2022/05/06 00:13:54;;;;;;;;;;;;;;;;;;5033487;28;1216;-81
2022/05/06 00:16:19;;;;;;;;;;;;;;;;;;5032126;28;1163;-82
2022/05/06 00:18:45;;;;;;;;;;;;;;;;;;5011861;28;1898;-81
2022/05/06 00:21:10;;;;;;;;;;;;;;;;;;5025221;28;1516;-81
2022/05/06 00:23:35;;;;;;;;;;;;;;;;;;5037536;28;1204;-81
2022/05/06 00:26:03;;;;;;;;;;;;;;;;;;5033534;28;1164;-82
2022/05/06 00:28:30;;;;;;;;;;;;;;;;;;5029104;28;1310;-81
2022/05/06 00:31:06;;;;;;;;;;;;;;;;;;5011935;28;1414;-81
2022/05/06 00:33:33;;;;;;;;;;;;;;;;;;5030297;28;1145;-81
2022/05/06 00:36:05;;;;;;;;;;;;;;;;;;5042833;28;1153;-81
2022/05/06 00:38:31;;;;;;;;;;;;;;;;;;5026014;28;1914;-80
2022/05/06 00:40:56;;;;;;;;;;;;;;;;;;5025468;28;1173;-80
2022/05/06 00:43:24;;;;;;;;;;;;;;;;;;5025188;28;1167;-80
2022/05/06 00:45:52;;;;;;;;;;;;;;;;;;5026362;28;1425;-80
2022/05/06 00:48:18;;;;;;;;;;;;;;;;;;5024855;28;1153;-80
2022/05/06 00:50:44;;;;;;;;;;;;;;;;;;5025018;28;1153;-81
2022/05/06 00:53:09;;;;;;;;;;;;;;;;;;5042396;28;1274;-81
2022/05/06 00:55:35;;;;;;;;;;;;;;;;;;5044708;28;1449;-82
2022/05/06 00:58:07;;;;;;;;;;;;;;;;;;5047925;28;1232;-81
2022/05/06 01:00:32;;;;;;;;;;;;;;;;;;5046095;28;1994;-81
2022/05/06 01:02:57;;;;;;;;;;;;;;;;;;5046128;28;1220;-82
2022/05/06 01:05:23;;;;;;;;;;;;;;;;;;5043095;28;1098;-81
2022/05/06 01:07:50;;;;;;;;;;;;;;;;;;5044159;28;1632;-81
2022/05/06 01:10:15;;;;;;;;;;;;;;;;;;5028035;28;1224;-81
2022/05/06 01:12:41;;;;;;;;;;;;;;;;;;5042846;28;1392;-80
2022/05/06 01:15:16;;;;;;;;;;;;;;;;;;5021829;28;1205;-80
2022/05/06 01:17:41;;;;;;;;;;;;;;;;;;5028787;28;1212;-80
2022/05/06 01:20:08;;;;;;;;;;;;;;;;;;5023295;28;2352;-81
2022/05/06 01:22:38;;;;;;;;;;;;;;;;;;5027848;28;1220;-80
2022/05/06 01:25:12;;;;;;;;;;;;;;;;;;5009200;28;1197;-80
2022/05/06 01:27:41;;;;;;;;;;;;;;;;;;5025599;28;1218;-79
2022/05/06 01:30:12;;;;;;;;;;;;;;;;;;5043872;28;1304;-80
2022/05/06 01:32:37;;;;;;;;;;;;;;;;;;5045339;28;1105;-79
2022/05/06 01:35:03;;;;;;;;;;;;;;;;;;5028450;28;1251;-79
2022/05/06 01:37:36;;;;;;;;;;;;;;;;;;5028993;28;1215;-81
2022/05/06 01:40:03;;;;;;;;;;;;;;;;;;5027669;28;1908;-80
2022/05/06 01:42:29;;;;;;;;;;;;;;;;;;5042145;28;1208;-79
2022/05/06 01:44:55;;;;;;;;;;;;;;;;;;5028251;28;1236;-80
2022/05/06 01:47:28;;;;;;;;;;;;;;;;;;5025418;28;1145;-79
2022/05/06 01:50:01;;;;;;;;;;;;;;;;;;5044592;28;1289;-80
2022/05/06 01:52:35;;;;;;;;;;;;;;;;;;5024677;28;1258;-80
2022/05/06 01:55:01;;;;;;;;;;;;;;;;;;5027230;28;1093;-80
2022/05/06 01:57:26;;;;;;;;;;;;;;;;;;5020649;28;1212;-79
2022/05/06 01:59:54;;;;;;;;;;;;;;;;;;5013398;28;1890;-80
2022/05/06 02:02:23;;;;;;;;;;;;;;;;;;5044252;28;1100;-79
2022/05/06 02:07:35;;;;;;;;;;;;;;;;;;5025106;28;1001;-79
2022/05/06 02:10:01;;;;;;;;;;;;;;;;;;5015334;28;1275;-79
2022/05/06 02:12:26;;;;;;;;;;;;;;;;;;5040776;28;1569;-79
2022/05/06 02:14:54;;;;;;;;;;;;;;;;;;5014937;28;1268;-80
2022/05/06 02:17:19;;;;;;;;;;;;;;;;;;5026156;28;1330;-80
2022/05/06 02:19:45;;;;;;;;;;;;;;;;;;5012057;28;1937;-79
2022/05/06 02:22:14;;;;;;;;;;;;;;;;;;5023851;28;1288;-80
2022/05/06 02:24:40;;;;;;;;;;;;;;;;;;5040715;28;1121;-79
2022/05/06 02:27:05;;;;;;;;;;;;;;;;;;5024620;28;1251;-80
2022/05/06 02:29:30;;;;;;;;;;;;;;;;;;5026117;28;1355;-79
2022/05/06 02:34:39;;;;;;;;;;;;;;;;;;5027860;28;1045;-79
2022/05/06 02:37:04;;;;;;;;;;;;;;;;;;5027127;28;1113;-79
2022/05/06 02:39:30;;;;;;;;;;;;;;;;;;5023269;28;1914;-78
2022/05/06 02:41:55;;;;;;;;;;;;;;;;;;5025306;28;1181;-79
2022/05/06 02:44:21;;;;;;;;;;;;;;;;;;5026779;28;1233;-79
2022/05/06 02:46:46;;;;;;;;;;;;;;;;;;5040330;28;1239;-79
2022/05/06 02:49:11;;;;;;;;;;;;;;;;;;5049042;28;1172;-80
2022/05/06 02:51:37;;;;;;;;;;;;;;;;;;5044261;28;1191;-80
2022/05/06 02:54:02;;;;;;;;;;;;;;;;;;5044867;28;1219;-79
2022/05/06 02:56:27;;;;;;;;;;;;;;;;;;5029194;28;1136;-79
2022/05/06 02:58:52;;;;;;;;;;;;;;;;;;5009992;28;1898;-79
2022/05/06 03:01:21;;;;;;;;;;;;;;;;;;5034495;28;1312;-79
2022/05/06 03:03:46;;;;;;;;;;;;;;;;;;5037629;28;1244;-79
2022/05/06 03:06:11;;;;;;;;;;;;;;;;;;5040850;28;1184;-79
2022/05/06 03:08:36;;;;;;;;;;;;;;;;;;5044395;28;1107;-78
2022/05/06 03:11:02;;;;;;;;;;;;;;;;;;5028158;28;1504;-79
2022/05/06 03:13:27;;;;;;;;;;;;;;;;;;5046168;28;1430;-78
2022/05/06 03:15:53;;;;;;;;;;;;;;;;;;5038093;28;1204;-79
2022/05/06 03:18:27;;;;;;;;;;;;;;;;;;5010734;28;1206;-79
2022/05/06 03:20:53;;;;;;;;;;;;;;;;;;5024618;28;1160;-78
2022/05/06 03:23:24;;;;;;;;;;;;;;;;;;5014630;28;1227;-78
2022/05/06 03:25:49;;;;;;;;;;;;;;;;;;5039193;28;1244;-79
2022/05/06 03:28:15;;;;;;;;;;;;;;;;;;5042895;28;1295;-78
2022/05/06 03:30:44;;;;;;;;;;;;;;;;;;5044508;28;1149;-78
2022/05/06 03:33:10;;;;;;;;;;;;;;;;;;5046782;28;1105;-79
2022/05/06 03:35:36;;;;;;;;;;;;;;;;;;5036539;28;1315;-78
2022/05/06 03:38:01;;;;;;;;;;;;;;;;;;5027960;28;1816;-79
2022/05/06 03:40:32;;;;;;;;;;;;;;;;;;5026965;28;1917;-78
2022/05/06 03:42:58;;;;;;;;;;;;;;;;;;5025659;28;1272;-78
2022/05/06 03:45:26;;;;;;;;;;;;;;;;;;5025396;28;1283;-80
2022/05/06 03:47:55;;;;;;;;;;;;;;;;;;5042576;28;1196;-80
2022/05/06 03:51:30;;;;;;;;;;;;;;;;;;5028154;28;1365;-79
2022/05/06 03:53:24;;;;;;;;;;;;;;;;;;5041107;28;1251;-78
2022/05/06 03:55:49;;;;;;;;;;;;;;;;;;5025768;28;1317;-78
2022/05/06 03:58:14;;;;;;;;;;;;;;;;;;5015895;28;1299;-79
2022/05/06 04:00:40;;;;;;;;;;;;;;;;;;5045006;28;1948;-78
2022/05/06 04:03:05;;;;;;;;;;;;;;;;;;5028820;28;1357;-80
2022/05/06 04:05:32;;;;;;;;;;;;;;;;;;5022529;28;1110;-81
2022/05/06 04:07:59;;;;;;;;;;;;;;;;;;5026276;28;1211;-80
2022/05/06 04:10:34;;;;;;;;;;;;;;;;;;5027903;28;1192;-79
2022/05/06 04:12:59;;;;;;;;;;;;;;;;;;5035528;28;1073;-79
2022/05/06 04:15:28;;;;;;;;;;;;;;;;;;5025054;28;1258;-79
2022/05/06 04:17:53;;;;;;;;;;;;;;;;;;5011506;28;1314;-79
2022/05/06 04:25:31;;;;;;;;;;;;;;;;;;5111732;27;1338;-79
2022/05/06 04:27:56;;;;;;;;;;;;;;;;;;5121299;28;1285;-79
2022/05/06 04:30:27;;;;;;;;;;;;;;;;;;5111309;27;1245;-79
2022/05/06 04:32:53;;;;;;;;;;;;;;;;;;5117373;28;1080;-79
2022/05/06 04:35:18;;;;;;;;;;;;;;;;;;5107431;28;1247;-79
2022/05/06 04:37:44;;;;;;;;;;;;;;;;;;5090850;28;1340;-79
2022/05/06 04:40:10;;;;;;;;;;;;;;;;;;5112695;28;1168;-79
2022/05/06 04:42:35;;;;;;;;;;;;;;;;;;5082195;28;1182;-79
2022/05/06 04:45:00;;;;;;;;;;;;;;;;;;5113641;28;1972;-81
2022/05/06 04:47:36;;;;;;;;;;;;;;;;;;5115373;28;1183;-79
2022/05/06 04:50:13;;;;;;;;;;;;;;;;;;5116371;28;1305;-79
2022/05/06 04:52:38;;;;;;;;;;;;;;;;;;5115136;28;1326;-79
2022/05/06 04:55:03;;;;;;;;;;;;;;;;;;5104467;28;1187;-80
2022/05/06 04:57:29;;;;;;;;;;;;;;;;;;5103482;28;1237;-79
2022/05/06 04:59:55;;;;;;;;;;;;;;;;;;5091613;28;1365;-80
2022/05/06 05:02:40;;;;;;;;;;;;;;;;;;5105145;28;1312;-79
2022/05/06 05:05:06;;;;;;;;;;;;;;;;;;5094944;28;1979;-77
2022/05/06 05:07:34;;;;;;;;;;;;;;;;;;5093337;28;1461;-78
2022/05/06 05:09:59;;;;;;;;;;;;;;;;;;5121416;28;1163;-80
2022/05/06 05:12:33;;;;;;;;;;;;;;;;;;5100954;28;1216;-77
2022/05/06 05:14:58;;;;;;;;;;;;;;;;;;5105479;28;1296;-79
2022/05/06 05:17:23;;;;;;;;;;;;;;;;;;5124354;28;1428;-79
2022/05/06 05:19:49;;;;;;;;;;;;;;;;;;5117346;27;1198;-79
2022/05/06 05:22:14;;;;;;;;;;;;;;;;;;5109677;28;1293;-80
2022/05/06 05:24:39;;;;;;;;;;;;;;;;;;5103642;28;1959;-79
2022/05/06 05:27:05;;;;;;;;;;;;;;;;;;5121763;28;1163;-80
2022/05/06 05:29:30;;;;;;;;;;;;;;;;;;5104537;28;1195;-79
2022/05/06 05:31:56;;;;;;;;;;;;;;;;;;5093706;28;1229;-80
2022/05/06 05:34:21;;;;;;;;;;;;;;;;;;5109648;28;1124;-80
2022/05/06 05:36:46;;;;;;;;;;;;;;;;;;5091546;28;1253;-79
2022/05/06 05:39:12;;;;;;;;;;;;;;;;;;5086589;28;1129;-79
2022/05/06 05:41:38;;;;;;;;;;;;;;;;;;5106773;28;1171;-79
2022/05/06 05:49:32;;;;;;;;;;;;;;;;;;5096794;28;1126;-79
2022/05/06 05:51:57;;;;;;;;;;;;;;;;;;5107226;28;1325;-79
2022/05/06 05:54:22;;;;;;;;;;;;;;;;;;5106017;28;1198;-79
2022/05/06 05:56:48;;;;;;;;;;;;;;;;;;5088258;28;1229;-79
2022/05/06 05:59:13;;;;;;;;;;;;;;;;;;5090473;28;1191;-80
2022/05/06 06:01:38;;;;;;;;;;;;;;;;;;5078423;28;1315;-80
2022/05/06 06:04:05;;;;;;;;;;;;;;;;;;5087962;28;1957;-80
2022/05/06 06:06:41;;;;;;;;;;;;;;;;;;5085796;28;1139;-80
2022/05/06 06:09:06;;;;;;;;;;;;;;;;;;5100294;28;1186;-80
2022/05/06 06:11:38;;;;;;;;;;;;;;;;;;5104583;28;1183;-79
2022/05/06 06:14:03;;;;;;;;;;;;;;;;;;5108786;28;1171;-80
2022/05/06 06:16:28;;;;;;;;;;;;;;;;;;5092844;28;1131;-80
2022/05/06 06:18:55;;;;;;;;;;;;;;;;;;5065575;28;1261;-80
2022/05/06 06:21:21;;;;;;;;;;;;;;;;;;5066513;28;1318;-79
2022/05/06 06:23:46;;;;;;;;;;;;;;;;;;5086819;28;1894;-80
2022/05/06 06:26:11;;;;;;;;;;;;;;;;;;5103096;28;1176;-80
2022/05/06 06:28:37;;;;;;;;;;;;;;;;;;5096345;28;1151;-79
2022/05/06 06:31:03;;;;;;;;;;;;;;;;;;5085713;28;1218;-80
2022/05/06 06:33:28;;;;;;;;;;;;;;;;;;5067752;28;1195;-81
2022/05/06 06:35:53;;;;;;;;;;;;;;;;;;5081269;28;1105;-79
2022/05/06 06:38:18;;;;;;;;;;;;;;;;;;5107746;28;1378;-79
2022/05/06 06:40:44;;;;;;;;;;;;;;;;;;5085648;28;1264;-80
2022/05/06 06:43:09;;;;;;;;;;;;;;;;;;5096309;28;1937;-79
2022/05/06 06:45:40;;;;;;;;;;;;;;;;;;5098170;28;1158;-78
2022/05/06 06:48:06;;;;;;;;;;;;;;;;;;5087781;28;1177;-79
2022/05/06 06:50:31;;;;;;;;;;;;;;;;;;5103133;28;1279;-80
2022/05/06 06:52:56;;;;;;;;;;;;;;;;;;5081908;28;1163;-81
2022/05/06 06:55:48;;;;;;;;;;;;;;;;;;5106212;28;1131;-80
2022/05/06 06:58:13;;;;;;;;;;;;;;;;;;5082284;28;1547;-81
2022/05/06 07:00:42;;;;;;;;;;;;;;;;;;5085729;28;1155;-81
2022/05/06 07:03:08;;;;;;;;;;;;;;;;;;5083931;28;1878;-80
2022/05/06 07:05:33;;;;;;;;;;;;;;;;;;5084046;28;1176;-80
2022/05/06 07:13:30;;;;;;;;;;;;;;;;;;5099916;28;1201;-79
2022/05/06 07:15:55;;;;;;;;;;;;;;;;;;5086506;28;1038;-80
2022/05/06 07:18:20;;;;;;;;;;;;;;;;;;5095920;28;1207;-79
2022/05/06 07:20:46;;;;;;;;;;;;;;;;;;5088403;28;1219;-80
2022/05/06 07:23:11;;;;;;;;;;;;;;;;;;5101731;28;1979;-79
2022/05/06 07:25:41;;;;;;;;;;;;;;;;;;5099986;28;1124;-79
2022/05/06 07:28:07;;;;;;;;;;;;;;;;;;5095143;28;1311;-82
2022/05/06 07:30:33;;;;;;;;;;;;;;;;;;5097488;28;1273;-82
2022/05/06 07:32:58;;;;;;;;;;;;;;;;;;5089683;28;1128;-82
2022/05/06 07:35:24;;;;;;;;;;;;;;;;;;5094771;28;1357;-82
2022/05/06 07:37:49;;;;;;;;;;;;;;;;;;5067050;28;1234;-82
2022/05/06 07:40:15;;;;;;;;;;;;;;;;;;5083201;28;1259;-82
2022/05/06 07:42:45;;;;;;;;;;;;;;;;;;5091098;28;1302;-82
2022/05/06 07:45:13;;;;;;;;;;;;;;;;;;5088316;28;1890;-82
2022/05/06 07:47:42;;;;;;;;;;;;;;;;;;5093177;28;1265;-83
2022/05/06 07:50:07;;;;;;;;;;;;;;;;;;5083665;28;1539;-82
2022/05/06 07:52:37;;;;;;;;;;;;;;;;;;5094871;28;1253;-82
2022/05/06 07:55:02;;;;;;;;;;;;;;;;;;5075355;28;1527;-82
2022/05/06 07:57:27;;;;;;;;;;;;;;;;;;5104930;28;1213;-81
2022/05/06 07:59:53;;;;;;;;;;;;;;;;;;5084042;28;1334;-82
2022/05/06 08:05:02;;;;;;;;;;;;;;;;;;5092239;28;1877;-81
2022/05/06 08:07:36;;;;;;;;;;;;;;;;;;5090328;28;1197;-81
2022/05/06 08:10:06;;;;;;;;;;;;;;;;;;5095799;28;1268;-81
2022/05/06 08:12:31;;;;;;;;;;;;;;;;;;5103335;28;1116;-82
2022/05/06 08:14:57;;;;;;;;;;;;;;;;;;5087561;28;1187;-81
2022/05/06 08:17:22;;;;;;;;;;;;;;;;;;5100702;28;1187;-82
2022/05/06 08:19:47;;;;;;;;;;;;;;;;;;5084395;28;1182;-83
2022/05/06 08:22:12;;;;;;;;;;;;;;;;;;5088098;28;1108;-82
2022/05/06 08:24:38;;;;;;;;;;;;;;;;;;5103331;28;1902;-82
2022/05/06 08:27:03;;;;;;;;;;;;;;;;;;5073958;28;1266;-82
2022/05/06 08:29:28;;;;;;;;;;;;;;;;;;5086753;28;1101;-83
2022/05/06 08:31:53;;;;;;;;;;;;;;;;;;5083456;28;1203;-84
2022/05/06 08:34:19;;;;;;;;;;;;;;;;;;5085335;28;1172;-84
2022/05/06 08:36:48;;;;;;;;;;;;;;;;;;5093185;28;1081;-85
2022/05/06 08:39:13;;;;;;;;;;;;;;;;;;5067062;28;1242;-84
2022/05/06 08:41:39;;;;;;;;;;;;;;;;;;5092353;28;1286;-80
2022/05/06 08:52:43;;;;;;;;;;;;;;;;;;5094274;28;1171;-79
2022/05/06 08:55:08;;;;;;;;;;;;;;;;;;5103473;28;1376;-79
2022/05/06 08:57:35;;;;;;;;;;;;;;;;;;5068325;28;1226;-80
2022/05/06 09:00:00;;;;;;;;;;;;;;;;;;5084619;28;1144;-79
2022/05/06 09:02:26;;;;;;;;;;;;;;;;;;5084511;28;1226;-79
2022/05/06 09:05:01;;;;;;;;;;;;;;;;;;5085344;28;1881;-78
2022/05/06 09:07:33;;;;;;;;;;;;;;;;;;5105983;28;1140;-79
2022/05/06 09:10:15;;;;;;;;;;;;;;;;;;5104508;28;1165;-80
2022/05/06 09:12:42;;;;;;;;;;;;;;;;;;5109094;28;1147;-79
2022/05/06 09:17:52;;;;;;;;;;;;;;;;;;5109540;28;1007;-80
2022/05/06 09:20:18;;;;;;;;;;;;;;;;;;5108210;28;1360;-79
2022/05/06 09:22:44;;;;;;;;;;;;;;;;;;5078789;28;1309;-80
2022/05/06 09:25:09;;;;;;;;;;;;;;;;;;5088929;28;1886;-80
2022/05/06 09:27:34;;;;;;;;;;;;;;;;;;5053019;28;1223;-79
2022/05/06 09:30:07;;;;;;;;;;;;;;;;;;5053302;28;1236;-80
2022/05/06 09:32:32;;;;;;;;;;;;;;;;;;5070832;28;1388;-79
2022/05/06 09:35:07;;;;;;;;;;;;;;;;;;5070023;28;1358;-80
2022/05/06 09:37:46;;;;;;;;;;;;;;;;;;5067862;28;1605;-80
2022/05/06 09:40:15;;;;;;;;;;;;;;;;;;5088624;28;974;-80
2022/05/06 09:42:45;;;;;;;;;;;;;;;;;;5087461;28;1115;-77
2022/05/06 09:45:11;;;;;;;;;;;;;;;;;;5088084;28;1918;-78
2022/05/06 09:47:37;;;;;;;;;;;;;;;;;;5070346;28;1194;-78
2022/05/06 09:50:04;;;;;;;;;;;;;;;;;;5086581;28;890;-81
2022/05/06 09:52:31;;;;;;;;;;;;;;;;;;5069999;28;1357;-80
2022/05/06 09:54:56;;;;;;;;;;;;;;;;;;5051359;28;1303;-79
2022/05/06 09:57:22;;;;;;;;;;;;;;;;;;5073102;28;1266;-79
2022/05/06 09:59:47;;;;;;;;;;;;;;;;;;5088851;28;874;-80
2022/05/06 10:02:13;;;;;;;;;;;;;;;;;;5051656;28;1301;-81
2022/05/06 10:04:38;;;;;;;;;;;;;;;;;;5070372;28;1898;-80
2022/05/06 10:07:09;;;;;;;;;;;;;;;;;;5051360;28;1306;-77
2022/05/06 10:09:47;;;;;;;;;;;;;;;;;;5067793;28;1306;-75
2022/05/06 10:12:14;;;;;;;;;;;;;;;;;;5079747;28;1125;-75
2022/05/06 10:14:40;;;;;;;;;;;;;;;;;;5069680;28;1346;-75
2022/05/06 10:17:07;;;;;;;;;;;;;;;;;;5087818;28;1155;-80
2022/05/06 10:19:38;;;;;;;;;;;;;;;;;;5070316;28;1195;-78
2022/05/06 10:22:04;;;;;;;;;;;;;;;;;;5080818;28;1062;-81
2022/05/06 10:24:41;;;;;;;;;;;;;;;;;;5087749;28;1902;-84
2022/05/06 10:33:15;;;;;;;;;;;;;;;;;;5091893;28;1060;-79
2022/05/06 10:35:41;;;;;;;;;;;;;;;;;;5096975;28;1245;-79
2022/05/06 10:38:19;;;;;;;;;;;;;;;;;;5085592;28;1399;-82
2022/05/06 10:40:59;;;;;;;;;;;;;;;;;;5098814;28;1349;-80
2022/05/06 10:43:44;;;;;;;;;;;;;;;;;;5094041;28;1934;-81
2022/05/06 10:46:10;;;;;;;;;;;;;;;;;;5097540;28;1284;-81
2022/05/06 10:48:35;;;;;;;;;;;;;;;;;;5103262;28;1175;-80
2022/05/06 10:51:19;;;;;;;;;;;;;;;;;;5078347;28;1438;-81
2022/05/06 10:53:45;;;;;;;;;;;;;;;;;;5095059;28;1321;-81
2022/05/06 10:56:11;;;;;;;;;;;;;;;;;;5083162;28;1070;-80
2022/05/06 10:58:36;;;;;;;;;;;;;;;;;;5096626;28;1286;-80
2022/05/06 11:01:01;;;;;;;;;;;;;;;;;;5102232;28;1244;-81
2022/05/06 11:03:26;;;;;;;;;;;;;;;;;;5093406;28;1977;-80
2022/05/06 11:05:52;;;;;;;;;;;;;;;;;;5074769;28;1203;-81
2022/05/06 11:08:21;;;;;;;;;;;;;;;;;;5077642;28;1313;-80
2022/05/06 11:10:46;;;;;;;;;;;;;;;;;;5087405;28;1387;-80
2022/05/06 11:13:11;;;;;;;;;;;;;;;;;;5085221;28;1236;-81
2022/05/06 11:15:37;;;;;;;;;;;;;;;;;;5092159;28;1237;-82
2022/05/06 11:18:04;;;;;;;;;;;;;;;;;;5075017;28;1195;-82
2022/05/06 11:20:34;;;;;;;;;;;;;;;;;;5088740;28;1192;-79
2022/05/06 11:23:04;;;;;;;;;;;;;;;;;;5092426;28;1195;-77
2022/05/06 11:25:35;;;;;;;;;;;;;;;;;;5098357;28;1889;-79
2022/05/06 11:28:08;;;;;;;;;;;;;;;;;;5097004;28;1195;-79
2022/05/06 11:30:34;;;;;;;;;;;;;;;;;;5098888;28;1043;-80
2022/05/06 11:33:04;;;;;;;;;;;;;;;;;;5102436;28;1245;-79
2022/05/06 11:35:29;;;;;;;;;;;;;;;;;;5092764;28;1293;-77
2022/05/06 11:37:55;;;;;;;;;;;;;;;;;;5086899;28;1235;-79
2022/05/06 11:40:33;;;;;;;;;;;;;;;;;;5082323;28;1348;-80
2022/05/06 11:43:02;;;;;;;;;;;;;;;;;;5082768;28;1136;-79
2022/05/06 11:48:12;;;;;;;;;;;;;;;;;;5084663;28;981;-78
2022/05/06 11:50:39;;;;;;;;;;;;;;;;;;5081441;28;1307;-78
2022/05/06 11:53:12;;;;;;;;;;;;;;;;;;5082843;28;1208;-76
2022/05/06 11:55:38;;;;;;;;;;;;;;;;;;5087478;28;1096;-79
2022/05/06 11:58:07;;;;;;;;;;;;;;;;;;5095621;28;1396;-78
2022/05/06 12:00:33;;;;;;;;;;;;;;;;;;5101882;28;1272;-78
2022/05/06 12:03:04;;;;;;;;;;;;;;;;;;5083473;28;1329;-77
2022/05/06 12:05:33;;;;;;;;;;;;;;;;;;5085546;28;1953;-76
2022/05/06 12:07:59;;;;;;;;;;;;;;;;;;5083870;28;1469;-78
2022/05/06 12:10:34;;;;;;;;;;;;;;;;;;5081511;28;1209;-78
2022/05/06 12:13:02;;;;;;;;;;;;;;;;;;5096429;28;1477;-80
2022/05/06 12:15:48;;;;;;;;;;;;;;;;;;5084818;28;1300;-74
2022/05/06 12:18:23;;;;;;;;;;;;;;;;;;5084829;28;1176;-75
2022/05/06 12:20:48;;;;;;;;;;;;;;;;;;5105558;28;1072;-75
2022/05/06 12:23:14;;;;;;;;;;;;;;;;;;5085754;28;1941;-74
2022/05/06 12:25:40;;;;;;;;;;;;;;;;;;5102834;28;1192;-74
2022/05/06 12:28:16;;;;;;;;;;;;;;;;;;5076942;28;1158;-74
2022/05/06 12:30:42;;;;;;;;;;;;;;;;;;5085624;28;1270;-75
2022/05/06 12:33:09;;;;;;;;;;;;;;;;;;5067032;28;1196;-75
2022/05/06 12:36:09;;;;;;;;;;;;;;;;;;5084864;28;1132;-76
2022/05/06 12:38:40;;;;;;;;;;;;;;;;;;5072066;28;1342;-75
2022/05/06 12:41:19;;;;;;;;;;;;;;;;;;5087793;28;1190;-75
2022/05/06 12:43:45;;;;;;;;;;;;;;;;;;5091797;28;1971;-75
2022/05/06 12:46:11;;;;;;;;;;;;;;;;;;5107728;28;1298;-75
2022/05/06 12:51:21;;;;;;;;;;;;;;;;;;5101552;28;1036;-78
2022/05/06 12:53:46;;;;;;;;;;;;;;;;;;5071240;28;1228;-77
2022/05/06 12:56:16;;;;;;;;;;;;;;;;;;5088767;28;1166;-75
2022/05/06 12:58:42;;;;;;;;;;;;;;;;;;5090763;28;1105;-79
2022/05/06 13:01:12;;;;;;;;;;;;;;;;;;5088272;28;1268;-82
2022/05/06 13:03:37;;;;;;;;;;;;;;;;;;5096381;28;1941;-79
2022/05/06 13:06:03;;;;;;;;;;;;;;;;;;5109655;28;1289;-79
2022/05/06 13:08:28;;;;;;;;;;;;;;;;;;5079662;28;1228;-78
2022/05/06 13:10:53;;;;;;;;;;;;;;;;;;5085099;28;1227;-78
2022/05/06 13:13:18;;;;;;;;;;;;;;;;;;5074535;28;1260;-79
2022/05/06 13:15:44;;;;;;;;;;;;;;;;;;5091892;28;1316;-78
2022/05/06 13:18:12;;;;;;;;;;;;;;;;;;5109155;28;1156;-78
2022/05/06 13:20:37;;;;;;;;;;;;;;;;;;5106702;28;1666;-77
2022/05/06 13:23:03;;;;;;;;;;;;;;;;;;5089223;28;1152;-75
2022/05/06 13:25:31;;;;;;;;;;;;;;;;;;5101295;28;1993;-76
2022/05/06 13:27:56;;;;;;;;;;;;;;;;;;5108674;28;1363;-78
2022/05/06 13:30:22;;;;;;;;;;;;;;;;;;5110421;28;1108;-77
2022/05/06 13:32:47;;;;;;;;;;;;;;;;;;5111755;28;1175;-77
2022/05/06 13:35:13;;;;;;;;;;;;;;;;;;5101255;28;1235;-77
2022/05/06 13:37:39;;;;;;;;;;;;;;;;;;5084911;28;1218;-78
2022/05/06 13:40:04;;;;;;;;;;;;;;;;;;5087262;28;1259;-77
2022/05/06 13:42:29;;;;;;;;;;;;;;;;;;5066030;28;1200;-76
2022/05/06 13:44:55;;;;;;;;;;;;;;;;;;5086026;28;1917;-77
2022/05/06 13:47:20;;;;;;;;;;;;;;;;;;5075115;28;1279;-77
2022/05/06 13:49:46;;;;;;;;;;;;;;;;;;5106891;28;1309;-77
2022/05/06 13:52:16;;;;;;;;;;;;;;;;;;5087939;28;1222;-77
2022/05/06 13:54:41;;;;;;;;;;;;;;;;;;5090716;28;1202;-73
2022/05/06 13:59:53;;;;;;;;;;;;;;;;;;5088399;28;696;-74
2022/05/06 14:02:18;;;;;;;;;;;;;;;;;;5085273;28;723;-75
2022/05/06 14:04:44;;;;;;;;;;;;;;;;;;5072334;28;1917;-74
2022/05/06 14:07:09;;;;;;;;;;;;;;;;;;5067974;28;1124;-75
2022/05/06 14:09:34;;;;;;;;;;;;;;;;;;5083247;28;921;-75
2022/05/06 14:12:00;;;;;;;;;;;;;;;;;;5086241;28;824;-73
2022/05/06 14:14:25;;;;;;;;;;;;;;;;;;5067995;28;1222;-75
2022/05/06 14:16:51;;;;;;;;;;;;;;;;;;5092955;28;728;-75
2022/05/06 14:19:18;;;;;;;;;;;;;;;;;;5069453;28;1336;-75
2022/05/06 14:21:44;;;;;;;;;;;;;;;;;;5084012;28;1162;-73
2022/05/06 14:24:10;;;;;;;;;;;;;;;;;;5068310;28;1910;-74
2022/05/06 14:26:35;;;;;;;;;;;;;;;;;;5083958;28;894;-76
2022/05/06 14:29:01;;;;;;;;;;;;;;;;;;5086186;28;1227;-76
2022/05/06 14:31:26;;;;;;;;;;;;;;;;;;5085391;28;1186;-77
2022/05/06 14:33:51;;;;;;;;;;;;;;;;;;5085663;28;1300;-76
2022/05/06 14:36:19;;;;;;;;;;;;;;;;;;5083050;28;1204;-75
2022/05/06 14:38:45;;;;;;;;;;;;;;;;;;5094498;28;1295;-75
2022/05/06 14:41:10;;;;;;;;;;;;;;;;;;5083496;28;1120;-76
2022/05/06 14:43:36;;;;;;;;;;;;;;;;;;5079870;28;1909;-76
2022/05/06 14:46:01;;;;;;;;;;;;;;;;;;5107074;28;1108;-76
2022/05/06 14:48:26;;;;;;;;;;;;;;;;;;5093844;28;1162;-76
2022/05/06 14:50:52;;;;;;;;;;;;;;;;;;5082791;28;1188;-76
2022/05/06 14:53:23;;;;;;;;;;;;;;;;;;5087754;28;1353;-77
2022/05/06 14:55:49;;;;;;;;;;;;;;;;;;5095837;28;1165;-75
2022/05/06 14:58:14;;;;;;;;;;;;;;;;;;5084825;28;1156;-75
2022/05/06 15:00:39;;;;;;;;;;;;;;;;;;5087718;28;1144;-75
2022/05/06 15:03:04;;;;;;;;;;;;;;;;;;5109495;28;1256;-75
2022/05/06 15:05:29;;;;;;;;;;;;;;;;;;5102208;28;1940;-75
2022/05/06 15:07:55;;;;;;;;;;;;;;;;;;5084668;28;1276;-76
2022/05/06 15:10:33;;;;;;;;;;;;;;;;;;5086921;28;1231;-74
2022/05/06 15:12:58;;;;;;;;;;;;;;;;;;5101988;28;1215;-75
2022/05/06 15:15:24;;;;;;;;;;;;;;;;;;5085223;28;1208;-74
2022/05/06 15:17:49;;;;;;;;;;;;;;;;;;5087181;28;1182;-77
2022/05/06 15:20:17;;;;;;;;;;;;;;;;;;5078614;28;1220;-74
2022/05/06 15:22:42;;;;;;;;;;;;;;;;;;5080064;28;1243;-73
2022/05/06 15:25:08;;;;;;;;;;;;;;;;;;5084423;28;1906;-75
2022/05/06 15:27:34;;;;;;;;;;;;;;;;;;5082382;28;1147;-76
2022/05/06 15:29:59;;;;;;;;;;;;;;;;;;5082781;28;1286;-75
2022/05/06 15:32:26;;;;;;;;;;;;;;;;;;5088548;28;1156;-75
2022/05/06 15:34:58;;;;;;;;;;;;;;;;;;5084335;28;1184;-76
2022/05/06 15:37:24;;;;;;;;;;;;;;;;;;5089320;28;1161;-75
2022/05/06 15:39:49;;;;;;;;;;;;;;;;;;5065763;28;1308;-75
2022/05/06 15:42:14;;;;;;;;;;;;;;;;;;5089368;28;1132;-74
2022/05/06 15:44:40;;;;;;;;;;;;;;;;;;5102923;28;2002;-75
2022/05/06 15:47:06;;;;;;;;;;;;;;;;;;5104914;28;889;-75
2022/05/06 15:49:32;;;;;;;;;;;;;;;;;;5103472;28;1203;-73
2022/05/06 15:51:57;;;;;;;;;;;;;;;;;;5085645;28;1202;-74
2022/05/06 15:54:29;;;;;;;;;;;;;;;;;;5103413;28;873;-75
2022/05/06 15:56:54;;;;;;;;;;;;;;;;;;5104458;28;1677;-74
2022/05/06 15:59:19;;;;;;;;;;;;;;;;;;5105761;28;841;-75
2022/05/06 16:01:44;;;;;;;;;;;;;;;;;;5104293;28;890;-75
2022/05/06 16:04:10;;;;;;;;;;;;;;;;;;5106102;28;1908;-74
2022/05/06 16:06:35;;;;;;;;;;;;;;;;;;5086149;28;1649;-74
2022/05/06 16:09:00;;;;;;;;;;;;;;;;;;5104768;28;841;-74
2022/05/06 16:11:26;;;;;;;;;;;;;;;;;;5103193;28;791;-75
2022/05/06 16:13:51;;;;;;;;;;;;;;;;;;5084342;28;1495;-75
2022/05/06 16:16:17;;;;;;;;;;;;;;;;;;5068556;28;1179;-75
2022/05/06 16:18:43;;;;;;;;;;;;;;;;;;5065220;28;1202;-76
2022/05/06 16:21:09;;;;;;;;;;;;;;;;;;5083598;28;862;-74
2022/05/06 16:23:34;;;;;;;;;;;;;;;;;;5064872;28;1934;-74
2022/05/06 16:25:59;;;;;;;;;;;;;;;;;;5067068;28;1203;-75
2022/05/06 16:28:27;;;;;;;;;;;;;;;;;;5084986;28;1012;-74
2022/05/06 16:30:52;;;;;;;;;;;;;;;;;;5067440;28;1207;-75
2022/05/06 16:33:18;;;;;;;;;;;;;;;;;;5067651;28;732;-73
2022/05/06 16:38:32;;;;;;;;;;;;;;;;;;5067702;28;686;-75
2022/05/06 16:40:57;;;;;;;;;;;;;;;;;;5049887;28;1171;-75
2022/05/06 16:43:22;;;;;;;;;;;;;;;;;;5049422;28;2015;-74
2022/05/06 16:45:49;;;;;;;;;;;;;;;;;;5065300;28;1187;-76
2022/05/06 16:48:15;;;;;;;;;;;;;;;;;;5069528;28;1215;-75
2022/05/06 16:50:41;;;;;;;;;;;;;;;;;;5054627;28;1397;-74
2022/05/06 16:53:06;;;;;;;;;;;;;;;;;;5066673;28;1357;-74
2022/05/06 16:55:35;;;;;;;;;;;;;;;;;;5064374;28;1662;-76
2022/05/06 16:58:00;;;;;;;;;;;;;;;;;;5067395;28;852;-75
2022/05/06 17:00:26;;;;;;;;;;;;;;;;;;5049658;28;1426;-75
2022/05/06 17:02:52;;;;;;;;;;;;;;;;;;5065117;28;1279;-73
2022/05/06 17:05:17;;;;;;;;;;;;;;;;;;5064766;28;1945;-75
2022/05/06 17:07:43;;;;;;;;;;;;;;;;;;5063865;28;1160;-76
2022/05/06 17:10:10;;;;;;;;;;;;;;;;;;5050625;28;1395;-74
2022/05/06 17:12:36;;;;;;;;;;;;;;;;;;5047208;28;1280;-74
2022/05/06 17:15:01;;;;;;;;;;;;;;;;;;5084885;28;822;-75
2022/05/06 17:17:34;;;;;;;;;;;;;;;;;;5047815;28;1249;-76
2022/05/06 17:20:00;;;;;;;;;;;;;;;;;;5082163;28;1148;-74
2022/05/06 17:22:37;;;;;;;;;;;;;;;;;;5048556;28;1319;-74
2022/05/06 17:25:02;;;;;;;;;;;;;;;;;;5099858;28;2137;-75
2022/05/06 17:27:29;;;;;;;;;;;;;;;;;;5105012;28;786;-74
2022/05/06 17:29:54;;;;;;;;;;;;;;;;;;5103336;28;1306;-76
2022/05/06 17:32:21;;;;;;;;;;;;;;;;;;5107869;28;956;-74
2022/05/06 17:34:46;;;;;;;;;;;;;;;;;;5110386;28;790;-76
2022/05/06 17:37:14;;;;;;;;;;;;;;;;;;5112842;28;869;-74
2022/05/06 17:39:42;;;;;;;;;;;;;;;;;;5107677;28;1170;-76
2022/05/06 17:42:09;;;;;;;;;;;;;;;;;;5100106;28;1166;-75
2022/05/06 17:44:36;;;;;;;;;;;;;;;;;;5099017;28;1893;-73
2022/05/06 17:47:02;;;;;;;;;;;;;;;;;;5105123;28;1107;-75
2022/05/06 17:49:28;;;;;;;;;;;;;;;;;;5107560;28;1282;-76
2022/05/06 17:51:53;;;;;;;;;;;;;;;;;;5102585;28;1404;-75
2022/05/06 17:54:19;;;;;;;;;;;;;;;;;;5105804;28;1171;-75
2022/05/06 17:56:44;;;;;;;;;;;;;;;;;;5106275;28;1116;-75